createdAt,value
2023-03-04T00:03:31.000Z,81.20
2023-03-04T00:13:31.000Z,90.30
2023-03-04T00:23:30.000Z,113.70
2023-03-04T00:33:30.000Z,96.20
2023-03-04T00:43:29.000Z,83.80
2023-03-04T00:53:29.000Z,81.60
2023-03-04T01:03:28.000Z,84.50
2023-03-04T01:23:27.000Z,103.50
2023-03-04T01:33:26.000Z,80.60
2023-03-04T01:43:26.000Z,77.80
2023-03-04T01:53:25.000Z,61.70
2023-03-04T02:03:25.000Z,72.40
2023-03-04T02:13:24.000Z,69.00
2023-03-04T02:23:24.000Z,63.20
2023-03-04T02:33:23.000Z,74.50
2023-03-04T02:53:22.000Z,66.90
2023-03-04T03:03:21.000Z,70.90
2023-03-04T03:13:21.000Z,79.50
2023-03-04T03:23:20.000Z,80.90
2023-03-04T03:33:20.000Z,71.40
2023-03-04T03:43:19.000Z,92.70
2023-03-04T03:53:18.000Z,70.90
2023-03-04T04:03:18.000Z,68.70
2023-03-04T04:23:16.000Z,58.70
2023-03-04T04:33:16.000Z,66.90
2023-03-04T04:43:15.000Z,67.10
2023-03-04T04:53:14.000Z,71.30
2023-03-04T05:03:14.000Z,66.00
2023-03-04T05:13:13.000Z,57.10
2023-03-04T05:23:12.000Z,57.90
2023-03-04T05:33:12.000Z,55.70
2023-03-04T05:53:10.000Z,64.50
2023-03-04T06:03:10.000Z,56.90
2023-03-04T06:13:09.000Z,58.50
2023-03-04T06:23:08.000Z,60.20
2023-03-04T06:33:07.000Z,59.60
2023-03-04T06:43:07.000Z,68.80
2023-03-04T06:53:06.000Z,50.60
2023-03-04T07:03:05.000Z,46.80
2023-03-04T07:23:04.000Z,60.90
2023-03-04T07:33:03.000Z,72.80
2023-03-04T07:43:02.000Z,49.60
2023-03-04T07:53:01.000Z,61.00
2023-03-04T08:03:01.000Z,58.80
2023-03-04T08:13:00.000Z,44.30
2023-03-04T08:22:59.000Z,23.70
2023-03-04T08:32:58.000Z,29.10
2023-03-04T08:52:57.000Z,28.80
2023-03-04T09:02:56.000Z,18.80
2023-03-04T09:12:55.000Z,23.50
2023-03-04T09:22:54.000Z,29.20
2023-03-04T09:32:53.000Z,18.80
2023-03-04T09:42:52.000Z,33.50
2023-03-04T09:52:51.000Z,25.90
2023-03-04T10:02:50.000Z,7.90
2023-03-04T10:22:49.000Z,22.10
2023-03-04T10:32:48.000Z,19.10
2023-03-04T10:42:47.000Z,11.20
2023-03-04T10:52:46.000Z,16.70
2023-03-04T11:02:45.000Z,23.70
2023-03-04T11:12:44.000Z,15.00
2023-03-04T11:22:43.000Z,8.10
2023-03-04T12:40:38.000Z,14.00
2023-03-04T12:40:38.000Z,11.90
2023-03-04T12:50:38.000Z,15.30
2023-03-04T13:00:39.000Z,7.80
2023-03-04T13:10:39.000Z,9.30
2023-03-04T13:20:39.000Z,5.60
2023-03-04T13:30:39.000Z,7.50
2023-03-04T13:40:39.000Z,11.70
2023-03-04T13:50:39.000Z,12.10
2023-03-04T14:10:40.000Z,20.10
2023-03-04T14:20:40.000Z,19.10
2023-03-04T14:30:40.000Z,11.40
2023-03-04T14:40:40.000Z,10.50
2023-03-04T14:50:40.000Z,6.30
2023-03-04T15:00:41.000Z,6.80
2023-03-04T15:10:41.000Z,6.70
2023-03-04T15:20:41.000Z,8.30
2023-03-04T15:40:42.000Z,6.20
2023-03-04T15:50:42.000Z,5.50
2023-03-04T16:00:42.000Z,19.70
2023-03-04T16:10:43.000Z,23.00
2023-03-04T16:20:43.000Z,5.20
2023-03-04T16:30:43.000Z,11.00
2023-03-04T16:40:43.000Z,4.40
2023-03-04T16:50:44.000Z,8.40
2023-03-04T17:10:44.000Z,7.90
2023-03-04T17:20:45.000Z,7.40
2023-03-04T17:30:45.000Z,4.90
2023-03-04T17:40:45.000Z,9.20
2023-03-04T17:50:46.000Z,7.90
2023-03-04T18:00:46.000Z,20.80
2023-03-04T18:10:46.000Z,5.20
2023-03-04T18:20:47.000Z,7.80
2023-03-04T18:40:47.000Z,8.10
2023-03-04T18:50:48.000Z,26.00
2023-03-04T19:00:48.000Z,10.90
2023-03-04T19:10:49.000Z,17.60
2023-03-04T19:20:49.000Z,36.20
2023-03-04T19:30:49.000Z,14.80
2023-03-04T19:40:50.000Z,10.50
2023-03-04T19:50:50.000Z,12.40
2023-03-04T20:10:51.000Z,34.40
2023-03-04T20:20:52.000Z,17.80
2023-03-04T20:30:52.000Z,16.90
2023-03-04T20:40:52.000Z,25.50
2023-03-04T20:50:53.000Z,30.60
2023-03-04T21:00:53.000Z,11.20
2023-03-04T21:10:54.000Z,34.80
2023-03-04T21:20:54.000Z,33.40
2023-03-04T21:40:55.000Z,21.50
2023-03-04T21:50:56.000Z,26.80
2023-03-04T22:00:56.000Z,22.10
2023-03-04T22:10:57.000Z,32.30
2023-03-04T22:20:57.000Z,27.10
2023-03-04T22:30:58.000Z,16.30
2023-03-04T22:40:58.000Z,42.60
2023-03-04T22:50:59.000Z,12.70
2023-03-04T23:11:00.000Z,11.10
2023-03-04T23:21:00.000Z,6.30
2023-03-04T23:31:01.000Z,9.80
2023-03-04T23:41:01.000Z,7.90
2023-03-04T23:51:01.000Z,9.00
